Time;durP1;ratioP1;P1;durP2;ratioP2;P2;SDS_P1;SDS_P2;PMS_P1;PMS_P2;Temp;Humidity;BMP_temperature;BMP_pressure;BME280_temperature;BME280_humidity;BME280_pressure;Samples;Min_cycle;Max_cycle;Signal;HPM_P1;HPM_P2
2022/11/08 00:02:01;;;;;;;12.05;3.10;;;12.80;99.90;;;;;;7377789;19;20875;-53
2022/11/08 00:04:28;;;;;;;11.55;3.45;;;12.80;99.90;;;;;;7380918;19;20014;-52
2022/11/08 00:15:11;;;;;;;10.05;2.80;;;12.80;99.90;;;;;;7379503;19;20018;-50
2022/11/08 00:17:37;;;;;;;9.10;3.17;;;12.80;99.90;;;;;;7379648;19;20038;-51
2022/11/08 00:20:04;;;;;;;10.82;3.10;;;12.80;99.90;;;;;;7380566;19;20510;-54
2022/11/08 00:22:30;;;;;;;11.38;3.47;;;12.80;99.90;;;;;;7377774;19;20042;-50
2022/11/08 00:24:57;;;;;;;9.40;2.42;;;12.80;99.90;;;;;;7377870;19;20018;-53
2022/11/08 00:27:24;;;;;;;10.50;2.92;;;12.80;99.90;;;;;;7374864;19;20471;-52
2022/11/08 00:29:50;;;;;;;11.38;2.83;;;12.80;99.90;;;;;;7380935;19;20090;-52
2022/11/08 00:32:21;;;;;;;12.68;3.10;;;12.80;99.90;;;;;;7381197;19;20031;-52
2022/11/08 00:34:49;;;;;;;8.50;2.70;;;12.80;99.90;;;;;;7379925;19;20018;-50
2022/11/08 00:37:16;;;;;;;14.75;3.10;;;12.80;99.90;;;;;;7378670;19;20497;-52
2022/11/08 00:39:42;;;;;;;8.40;2.38;;;12.80;99.90;;;;;;7381218;19;20019;-52
2022/11/08 00:42:09;;;;;;;9.75;3.00;;;12.70;99.90;;;;;;7380736;19;20046;-51
2022/11/08 00:44:35;;;;;;;10.25;2.70;;;12.70;99.90;;;;;;7382307;19;20482;-53
2022/11/08 00:47:01;;;;;;;8.55;2.67;;;12.60;99.90;;;;;;7380931;19;20657;-52
2022/11/08 00:49:27;;;;;;;8.15;2.83;;;12.50;99.90;;;;;;7381308;19;20010;-52
2022/11/08 00:51:53;;;;;;;10.82;2.65;;;12.50;99.90;;;;;;7377077;19;20513;-53
2022/11/08 00:54:20;;;;;;;10.60;2.67;;;12.40;99.90;;;;;;7377836;19;20082;-53
2022/11/08 00:56:48;;;;;;;7.90;3.30;;;12.40;99.90;;;;;;7380419;19;20029;-37
2022/11/08 00:59:16;;;;;;;9.77;3.42;;;12.30;99.90;;;;;;7378377;19;20035;-37
2022/11/08 01:01:43;;;;;;;8.50;2.88;;;12.30;99.90;;;;;;7380297;19;20022;-37
2022/11/08 01:04:12;;;;;;;9.05;3.05;;;12.20;99.90;;;;;;7376190;19;20037;-37
2022/11/08 01:06:39;;;;;;;8.63;3.42;;;12.20;99.90;;;;;;7377710;19;20022;-37
2022/11/08 01:09:06;;;;;;;7.45;2.75;;;12.10;99.90;;;;;;7378894;19;20020;-38
2022/11/08 01:11:33;;;;;;;8.13;3.05;;;12.10;99.90;;;;;;7375147;19;20545;-37
2022/11/08 01:14:00;;;;;;;14.80;3.47;;;12.00;99.90;;;;;;7377078;19;20018;-36
2022/11/08 01:16:29;;;;;;;8.65;3.25;;;12.00;99.90;;;;;;7376940;19;20024;-36
2022/11/08 01:18:56;;;;;;;11.43;3.47;;;12.00;99.90;;;;;;7377310;19;20018;-36
2022/11/08 01:21:23;;;;;;;8.77;2.85;;;11.90;99.90;;;;;;7376878;19;20018;-36
2022/11/08 01:23:49;;;;;;;12.60;3.65;;;11.90;99.90;;;;;;7374722;19;20029;-36
2022/11/08 01:26:19;;;;;;;8.80;3.15;;;11.90;99.90;;;;;;7377987;19;20073;-36
2022/11/08 01:28:46;;;;;;;12.80;3.20;;;11.90;99.90;;;;;;7378972;19;20031;-36
2022/11/08 01:31:15;;;;;;;12.02;3.15;;;11.90;99.90;;;;;;7377956;19;20014;-37
2022/11/08 01:33:42;;;;;;;12.27;2.58;;;11.80;99.90;;;;;;7375380;19;20081;-36
2022/11/08 01:36:12;;;;;;;7.45;3.03;;;11.80;99.90;;;;;;7375428;19;20022;-37
2022/11/08 01:38:38;;;;;;;12.05;2.78;;;11.80;99.90;;;;;;7376648;19;20014;-36
2022/11/08 01:41:05;;;;;;;9.55;3.35;;;11.80;99.90;;;;;;7374659;19;20489;-36
2022/11/08 01:43:38;;;;;;;13.07;3.30;;;11.70;99.90;;;;;;7374296;19;20024;-36
2022/11/08 01:46:22;;;;;;;11.88;3.10;;;11.70;99.90;;;;;;7375683;19;20014;-36
2022/11/08 01:49:09;;;;;;;13.52;3.42;;;11.70;99.90;;;;;;7377222;19;20037;-52
2022/11/08 01:51:41;;;;;;;10.10;3.03;;;11.60;99.90;;;;;;7377037;19;20019;-36
2022/11/08 01:54:12;;;;;;;11.50;2.72;;;11.50;99.90;;;;;;7373942;19;20045;-36
2022/11/08 01:56:40;;;;;;;14.02;3.65;;;11.60;99.90;;;;;;7377204;19;20384;-36
2022/11/08 01:59:09;;;;;;;12.07;3.58;;;11.50;99.90;;;;;;7380195;19;20010;-52
2022/11/08 02:01:35;;;;;;;12.82;3.83;;;11.50;99.90;;;;;;7379419;19;20007;-36
2022/11/08 02:04:03;;;;;;;10.00;2.90;;;11.50;99.90;;;;;;7374365;19;20018;-37
2022/11/08 02:06:32;;;;;;;9.82;3.08;;;11.60;99.90;;;;;;7378620;19;20420;-52
2022/11/08 02:09:02;;;;;;;9.00;3.85;;;11.60;99.90;;;;;;7377907;19;20030;-51
2022/11/08 02:11:29;;;;;;;10.18;2.92;;;11.60;99.90;;;;;;7375441;19;20014;-53
2022/11/08 02:13:56;;;;;;;12.52;3.40;;;11.60;99.90;;;;;;7374801;19;20109;-36
2022/11/08 02:16:22;;;;;;;10.27;3.67;;;11.60;99.90;;;;;;7374808;19;20014;-51
2022/11/08 02:18:49;;;;;;;8.82;2.95;;;11.60;99.90;;;;;;7374951;19;20736;-36
2022/11/08 02:21:18;;;;;;;14.45;3.30;;;11.50;99.90;;;;;;7379300;19;20019;-50
2022/11/08 02:23:55;;;;;;;8.50;3.00;;;11.50;99.90;;;;;;7373397;19;20023;-49
2022/11/08 02:26:29;;;;;;;8.95;2.85;;;11.50;99.90;;;;;;7372228;19;20128;-49
2022/11/08 02:28:55;;;;;;;7.70;3.30;;;11.50;99.90;;;;;;7376947;19;20014;-37
2022/11/08 02:31:21;;;;;;;12.35;3.72;;;11.50;99.90;;;;;;7373482;19;20018;-37
2022/11/08 02:33:48;;;;;;;9.95;3.40;;;11.50;99.90;;;;;;7377359;19;20011;-36
2022/11/08 02:36:18;;;;;;;9.15;3.80;;;11.40;99.90;;;;;;7376606;19;20014;-36
2022/11/08 02:38:50;;;;;;;10.35;2.80;;;11.40;99.90;;;;;;7375710;19;20462;-36
2022/11/08 02:41:17;;;;;;;8.85;3.22;;;11.40;99.90;;;;;;7374303;19;20496;-36
2022/11/08 02:43:43;;;;;;;11.27;3.10;;;11.40;99.90;;;;;;7377303;19;20011;-36
2022/11/08 02:46:10;;;;;;;8.65;3.72;;;11.30;99.90;;;;;;7375563;19;20014;-36
2022/11/08 02:48:36;;;;;;;10.20;3.42;;;11.30;99.90;;;;;;7376893;19;20015;-36
2022/11/08 02:51:02;;;;;;;10.52;3.53;;;11.30;99.90;;;;;;7375339;19;20018;-37
2022/11/08 02:53:28;;;;;;;9.52;3.38;;;11.30;99.90;;;;;;7376719;19;20023;-36
2022/11/08 02:55:54;;;;;;;9.43;3.22;;;11.20;99.90;;;;;;7374175;19;20014;-36
2022/11/08 02:58:20;;;;;;;12.77;3.20;;;11.20;99.90;;;;;;7373176;19;20014;-36
2022/11/08 03:00:46;;;;;;;13.15;3.28;;;11.20;99.90;;;;;;7375864;19;20038;-36
2022/11/08 03:03:13;;;;;;;10.57;3.25;;;11.20;99.90;;;;;;7374189;19;20062;-36
2022/11/08 03:05:39;;;;;;;10.98;3.72;;;11.20;99.90;;;;;;7374976;19;20092;-36
2022/11/08 03:08:05;;;;;;;9.98;3.10;;;11.10;99.90;;;;;;7375399;19;20014;-36
2022/11/08 03:10:31;;;;;;;9.15;3.67;;;11.10;99.90;;;;;;7376219;19;20486;-36
2022/11/08 03:12:59;;;;;;;9.73;3.13;;;11.10;99.90;;;;;;7373664;19;20022;-36
2022/11/08 03:15:26;;;;;;;11.30;3.88;;;11.00;99.90;;;;;;7376340;19;20048;-37
2022/11/08 03:17:55;;;;;;;8.27;2.75;;;11.00;99.90;;;;;;7372085;19;20022;-36
2022/11/08 03:20:21;;;;;;;7.75;3.10;;;10.90;99.90;;;;;;7378400;19;20022;-36
2022/11/08 03:22:47;;;;;;;10.18;3.45;;;11.00;99.90;;;;;;7375127;19;20042;-36
2022/11/08 03:25:13;;;;;;;6.68;2.70;;;11.00;99.90;;;;;;7370842;19;20889;-40
2022/11/08 03:27:40;;;;;;;9.18;3.75;;;11.00;99.90;;;;;;7372782;19;20026;-36
2022/11/08 03:30:07;;;;;;;8.57;3.22;;;11.00;99.90;;;;;;7375906;19;20018;-36
2022/11/08 03:32:33;;;;;;;9.60;3.38;;;11.00;99.90;;;;;;7375181;19;20022;-52
2022/11/08 03:34:59;;;;;;;8.00;3.17;;;11.00;99.90;;;;;;7371321;19;20019;-53
2022/11/08 03:37:27;;;;;;;9.40;3.10;;;10.90;99.90;;;;;;7370536;19;20050;-53
2022/11/08 03:39:53;;;;;;;9.98;3.65;;;10.90;99.90;;;;;;7372374;19;20057;-52
2022/11/08 03:42:19;;;;;;;10.13;3.20;;;10.90;99.90;;;;;;7375171;19;20025;-52
2022/11/08 03:44:45;;;;;;;8.95;3.05;;;10.90;99.90;;;;;;7374399;19;20024;-53
2022/11/08 03:47:11;;;;;;;7.97;3.22;;;10.90;99.90;;;;;;7372404;19;20022;-52
2022/11/08 03:49:37;;;;;;;11.35;3.58;;;10.90;99.90;;;;;;7374011;19;20019;-52
2022/11/08 03:52:03;;;;;;;8.23;3.30;;;10.80;99.90;;;;;;7370022;19;20035;-37
2022/11/08 03:54:29;;;;;;;11.70;3.55;;;10.80;99.90;;;;;;7372370;19;20032;-37
2022/11/08 03:56:56;;;;;;;6.93;3.25;;;10.80;99.90;;;;;;7375158;19;20018;-36
2022/11/08 03:59:22;;;;;;;11.07;3.42;;;10.70;99.90;;;;;;7373444;19;20022;-37
2022/11/08 04:01:48;;;;;;;10.77;3.47;;;10.70;99.90;;;;;;7373415;19;20034;-51
2022/11/08 04:04:14;;;;;;;11.63;4.05;;;10.80;99.90;;;;;;7371285;19;20077;-53
2022/11/08 04:06:41;;;;;;;7.63;3.10;;;10.70;99.90;;;;;;7372841;19;20018;-36
2022/11/08 04:09:07;;;;;;;8.57;3.75;;;10.80;99.90;;;;;;7370477;19;20026;-36
2022/11/08 04:17:02;;;;;;;11.32;3.95;;;10.80;99.90;;;;;;7378050;19;20043;-37
2022/11/08 04:22:13;;;;;;;10.98;4.00;;;10.80;99.90;;;;;;7382851;19;20533;-37
2022/11/08 04:24:39;;;;;;;7.75;3.33;;;10.80;99.90;;;;;;7379206;19;20533;-49
2022/11/08 04:27:05;;;;;;;9.32;3.50;;;10.90;99.90;;;;;;7380548;19;20022;-52
2022/11/08 04:29:31;;;;;;;9.82;3.50;;;10.90;99.90;;;;;;7380879;19;20042;-53
2022/11/08 04:31:57;;;;;;;6.88;3.35;;;10.90;99.90;;;;;;7378509;19;20363;-53
2022/11/08 04:34:23;;;;;;;9.98;3.92;;;10.90;99.90;;;;;;7377973;19;20018;-53
2022/11/08 04:36:49;;;;;;;10.27;3.03;;;10.90;99.90;;;;;;7383194;19;20015;-53
2022/11/08 04:39:16;;;;;;;9.77;3.15;;;10.90;99.90;;;;;;7381469;19;20014;-51
2022/11/08 04:41:43;;;;;;;10.63;3.45;;;10.90;99.90;;;;;;7379130;19;20799;-50
2022/11/08 04:44:09;;;;;;;11.73;3.20;;;10.80;99.90;;;;;;7377534;19;20556;-53
2022/11/08 04:46:35;;;;;;;8.98;3.25;;;10.80;99.90;;;;;;7377054;19;20022;-51
2022/11/08 04:49:02;;;;;;;9.82;3.10;;;10.80;99.90;;;;;;7379960;19;20018;-37
2022/11/08 04:51:30;;;;;;;10.88;2.95;;;10.80;99.90;;;;;;7377667;19;20042;-37
2022/11/08 04:54:01;;;;;;;7.55;3.13;;;10.80;99.90;;;;;;7381927;19;20010;-37
2022/11/08 04:56:29;;;;;;;9.10;2.85;;;10.80;99.90;;;;;;7376788;19;20054;-52
2022/11/08 04:58:57;;;;;;;9.73;3.03;;;10.90;99.90;;;;;;7378000;19;20025;-52
2022/11/08 05:01:29;;;;;;;7.85;3.00;;;11.00;99.90;;;;;;7376227;19;20052;-53
2022/11/08 05:03:55;;;;;;;5.15;2.55;;;10.90;99.90;;;;;;7379533;19;20019;-51
2022/11/08 05:06:24;;;;;;;5.25;2.47;;;10.80;99.90;;;;;;7378644;19;20194;-37
2022/11/08 05:08:52;;;;;;;8.70;2.70;;;10.80;99.90;;;;;;7380432;19;20105;-37
2022/11/08 05:11:21;;;;;;;5.55;2.97;;;10.80;99.90;;;;;;7378113;19;20018;-37
2022/11/08 05:13:48;;;;;;;5.88;2.60;;;10.80;99.90;;;;;;7378568;19;20041;-37
2022/11/08 05:16:23;;;;;;;6.85;2.38;;;10.70;99.90;;;;;;7377789;19;20346;-37
2022/11/08 05:18:50;;;;;;;8.98;3.40;;;10.70;99.90;;;;;;7375570;19;20029;-52
2022/11/08 05:24:06;;;;;;;7.20;2.42;;;10.70;99.90;;;;;;7375464;19;20014;-53
2022/11/08 05:26:34;;;;;;;8.27;2.80;;;10.80;99.90;;;;;;7376350;19;20026;-52
2022/11/08 05:29:00;;;;;;;9.50;2.60;;;10.80;99.90;;;;;;7378273;19;20014;-36
2022/11/08 05:31:26;;;;;;;6.47;2.33;;;10.70;99.90;;;;;;7377229;19;20049;-37
2022/11/08 05:33:52;;;;;;;7.63;2.40;;;10.70;99.90;;;;;;7379917;19;20022;-37
2022/11/08 05:36:19;;;;;;;7.53;2.80;;;10.80;99.90;;;;;;7378820;19;20011;-37
2022/11/08 05:38:45;;;;;;;8.85;3.33;;;10.70;99.90;;;;;;7376959;19;20769;-54
2022/11/08 05:41:14;;;;;;;10.10;2.72;;;10.80;99.90;;;;;;7379793;19;20018;-53
2022/11/08 05:43:42;;;;;;;5.55;2.40;;;10.70;99.90;;;;;;7376200;19;20018;-36
2022/11/08 05:46:08;;;;;;;10.40;2.78;;;10.80;99.90;;;;;;7377382;19;20018;-36
2022/11/08 05:48:35;;;;;;;8.27;2.58;;;10.80;99.90;;;;;;7374925;19;20018;-36
2022/11/08 05:51:01;;;;;;;4.63;2.03;;;10.80;99.90;;;;;;7374823;19;20029;-37
2022/11/08 05:53:27;;;;;;;6.65;2.72;;;10.70;99.90;;;;;;7377384;19;20094;-36
2022/11/08 05:56:01;;;;;;;8.52;2.60;;;10.70;99.90;;;;;;7376165;19;20021;-36
2022/11/08 05:58:28;;;;;;;6.28;2.60;;;10.70;99.90;;;;;;7370775;19;20030;-53
2022/11/08 06:01:10;;;;;;;5.60;2.42;;;10.70;99.90;;;;;;7373193;19;20015;-51
2022/11/08 06:03:37;;;;;;;9.40;3.45;;;10.60;99.90;;;;;;7370181;19;20738;-52
2022/11/08 06:06:10;;;;;;;6.68;2.70;;;10.60;99.90;;;;;;7370142;19;20025;-51
2022/11/08 06:08:37;;;;;;;7.43;2.53;;;10.70;99.90;;;;;;7371736;19;20019;-51
2022/11/08 06:11:05;;;;;;;9.65;2.35;;;10.70;99.90;;;;;;7370912;19;20372;-52
2022/11/08 06:13:32;;;;;;;8.30;2.67;;;10.70;99.90;;;;;;7371756;19;20019;-53
2022/11/08 06:16:00;;;;;;;6.28;2.47;;;10.70;99.90;;;;;;7366354;19;20022;-53
2022/11/08 06:18:28;;;;;;;6.07;2.72;;;10.70;99.90;;;;;;7373553;19;20015;-37
2022/11/08 06:20:54;;;;;;;9.35;3.03;;;10.70;99.90;;;;;;7370705;19;20019;-36
2022/11/08 06:23:21;;;;;;;8.23;3.33;;;10.70;99.90;;;;;;7372370;19;20122;-37
2022/11/08 06:25:47;;;;;;;8.93;3.17;;;10.60;99.90;;;;;;7364736;19;20023;-36
2022/11/08 06:28:13;;;;;;;7.72;3.25;;;10.80;99.90;;;;;;7370060;19;20021;-37
2022/11/08 06:30:40;;;;;;;10.18;3.08;;;10.70;99.90;;;;;;7366597;19;20030;-38
2022/11/08 06:33:09;;;;;;;9.05;2.72;;;10.70;99.90;;;;;;7365970;19;20798;-38
2022/11/08 06:35:36;;;;;;;7.80;2.85;;;10.70;99.90;;;;;;7365853;19;20026;-35
2022/11/08 06:38:03;;;;;;;9.15;3.85;;;10.70;99.90;;;;;;7362734;19;20022;-35
2022/11/08 06:40:31;;;;;;;7.07;3.10;;;10.70;99.90;;;;;;7368444;19;20029;-36
2022/11/08 06:42:58;;;;;;;10.45;3.65;;;10.80;99.90;;;;;;7366342;19;20111;-36
2022/11/08 06:45:25;;;;;;;6.43;2.75;;;10.70;99.90;;;;;;7367031;19;20591;-36
2022/11/08 06:47:59;;;;;;;5.88;3.13;;;10.80;99.90;;;;;;7372846;19;20516;-37
2022/11/08 06:50:27;;;;;;;7.38;3.05;;;10.80;99.90;;;;;;7377002;19;20024;-36
2022/11/08 06:53:12;;;;;;;8.20;3.03;;;10.80;99.90;;;;;;7370426;19;20057;-36
2022/11/08 06:55:39;;;;;;;8.60;3.10;;;10.80;99.90;;;;;;7374392;19;20023;-36
2022/11/08 06:58:06;;;;;;;7.13;3.00;;;10.80;99.90;;;;;;7370390;19;20019;-37
2022/11/08 07:00:32;;;;;;;7.88;3.38;;;10.90;99.90;;;;;;7374477;19;20061;-37
2022/11/08 07:03:00;;;;;;;6.63;3.05;;;10.80;99.90;;;;;;7374250;19;20014;-37
2022/11/08 07:05:28;;;;;;;6.80;3.08;;;10.90;99.90;;;;;;7372504;19;20056;-37
2022/11/08 07:07:57;;;;;;;7.13;3.55;;;10.90;99.90;;;;;;7366459;19;20375;-37
2022/11/08 07:10:26;;;;;;;8.10;2.85;;;11.00;99.90;;;;;;7366238;19;20022;-36
2022/11/08 07:13:03;;;;;;;6.80;3.22;;;10.90;99.90;;;;;;7370300;19;20033;-37
2022/11/08 07:15:32;;;;;;;9.30;3.15;;;10.90;99.90;;;;;;7370027;19;20021;-37
2022/11/08 07:18:00;;;;;;;11.00;3.30;;;11.00;99.90;;;;;;7365511;19;20476;-36
2022/11/08 07:20:26;;;;;;;6.60;2.63;;;11.00;99.90;;;;;;7370325;19;20024;-36
2022/11/08 07:22:56;;;;;;;5.20;2.63;;;11.20;99.90;;;;;;7370877;19;20027;-36
2022/11/08 07:25:23;;;;;;;6.95;2.58;;;11.20;99.90;;;;;;7373889;19;20019;-36
2022/11/08 07:27:49;;;;;;;6.68;2.28;;;11.20;99.90;;;;;;7373628;19;20815;-37
2022/11/08 07:30:15;;;;;;;5.38;2.53;;;11.20;99.90;;;;;;7363753;19;20074;-37
2022/11/08 07:32:42;;;;;;;6.55;3.65;;;11.20;99.90;;;;;;7366979;19;20022;-36
2022/11/08 07:35:08;;;;;;;8.73;2.30;;;11.20;99.90;;;;;;7369197;19;20015;-36
2022/11/08 07:37:35;;;;;;;4.40;2.03;;;11.30;99.90;;;;;;7368939;19;20021;-36
2022/11/08 07:40:02;;;;;;;4.07;1.90;;;11.30;99.90;;;;;;7370259;19;20078;-36
2022/11/08 07:42:35;;;;;;;6.82;1.60;;;11.40;99.90;;;;;;7367446;19;20035;-36
2022/11/08 07:45:07;;;;;;;14.10;9.77;;;11.50;99.90;;;;;;7366264;19;20019;-36
2022/11/08 07:47:34;;;;;;;4.95;2.15;;;11.50;99.90;;;;;;7364290;19;20158;-36
2022/11/08 07:50:00;;;;;;;6.45;2.80;;;11.60;99.90;;;;;;7377147;19;20366;-52
2022/11/08 07:52:27;;;;;;;6.63;2.70;;;11.60;99.90;;;;;;7377489;19;20014;-49
2022/11/08 07:54:53;;;;;;;8.23;2.05;;;11.70;99.90;;;;;;7374595;19;20019;-54
2022/11/08 07:57:20;;;;;;;6.13;2.63;;;11.80;99.90;;;;;;7379203;19;20025;-52
2022/11/08 07:59:46;;;;;;;6.13;2.28;;;11.80;99.90;;;;;;7379178;19;20022;-50
2022/11/08 08:02:13;;;;;;;7.63;3.40;;;11.90;99.90;;;;;;7376547;19;20026;-36
2022/11/08 08:04:40;;;;;;;6.53;2.30;;;11.90;99.90;;;;;;7382578;19;20022;-36
2022/11/08 08:07:07;;;;;;;6.18;2.13;;;12.00;99.90;;;;;;7380035;19;20022;-36
2022/11/08 08:09:33;;;;;;;8.60;4.95;;;12.00;99.90;;;;;;7382021;19;20045;-49
2022/11/08 08:12:00;;;;;;;8.55;3.20;;;12.10;99.90;;;;;;7381720;19;20022;-37
2022/11/08 08:14:26;;;;;;;5.00;1.98;;;12.20;99.90;;;;;;7380927;19;20042;-55
2022/11/08 08:16:53;;;;;;;5.53;1.83;;;12.30;99.90;;;;;;7378549;19;20019;-51
2022/11/08 08:19:20;;;;;;;6.22;2.65;;;12.50;99.90;;;;;;7375724;19;20022;-52
2022/11/08 08:21:46;;;;;;;6.78;1.92;;;12.70;99.90;;;;;;7382259;19;20014;-52
2022/11/08 08:24:12;;;;;;;5.20;2.17;;;13.00;99.90;;;;;;7377383;19;20710;-51
2022/11/08 08:26:39;;;;;;;4.32;2.50;;;13.40;99.90;;;;;;7380712;19;20015;-51
2022/11/08 08:29:05;;;;;;;4.13;2.28;;;13.60;99.90;;;;;;7376498;19;20122;-51
2022/11/08 08:31:32;;;;;;;5.15;2.03;;;13.90;99.90;;;;;;7378200;19;20022;-52
2022/11/08 08:33:58;;;;;;;5.47;2.28;;;14.10;99.90;;;;;;7376432;19;20021;-52
2022/11/08 08:36:24;;;;;;;4.80;1.92;;;14.40;99.90;;;;;;7379552;19;20018;-52
2022/11/08 08:38:51;;;;;;;5.30;1.95;;;14.60;99.90;;;;;;7373152;19;20021;-50
2022/11/08 08:41:17;;;;;;;4.15;1.80;;;14.70;99.90;;;;;;7380203;19;20022;-51
2022/11/08 08:43:43;;;;;;;3.90;1.65;;;14.80;99.90;;;;;;7377822;19;20034;-50
2022/11/08 08:46:11;;;;;;;6.22;1.95;;;14.60;99.90;;;;;;7370354;19;20809;-53
2022/11/08 08:48:37;;;;;;;4.85;1.85;;;14.50;99.90;;;;;;7375801;19;20018;-51
2022/11/08 08:51:04;;;;;;;5.18;1.90;;;14.20;99.90;;;;;;7371790;19;20048;-53
2022/11/08 08:53:30;;;;;;;4.90;2.20;;;14.20;99.90;;;;;;7368113;19;20058;-36
2022/11/08 08:55:57;;;;;;;5.00;1.77;;;14.20;99.90;;;;;;7373165;19;20018;-53
2022/11/08 08:58:23;;;;;;;5.10;1.52;;;14.40;99.90;;;;;;7368821;19;20018;-48
2022/11/08 09:00:49;;;;;;;4.32;1.83;;;14.50;99.90;;;;;;7370276;19;20788;-52
2022/11/08 09:03:16;;;;;;;4.60;1.83;;;14.80;99.90;;;;;;7368577;19;20105;-54
2022/11/08 09:05:45;;;;;;;4.25;1.50;;;14.90;99.90;;;;;;7376549;19;20022;-53
2022/11/08 09:08:13;;;;;;;4.35;2.13;;;15.20;99.90;;;;;;7377820;19;20022;-44
2022/11/08 09:10:40;;;;;;;4.72;1.50;;;15.30;99.90;;;;;;7374776;19;20019;-37
2022/11/08 09:13:06;;;;;;;5.32;2.13;;;15.70;99.90;;;;;;7375170;19;20018;-36
2022/11/08 09:15:32;;;;;;;5.47;1.67;;;15.80;99.90;;;;;;7377146;19;20007;-36
2022/11/08 09:17:59;;;;;;;5.57;2.40;;;15.70;99.90;;;;;;7377122;19;20046;-52
2022/11/08 09:20:26;;;;;;;6.18;2.72;;;15.70;99.90;;;;;;7375133;19;20022;-52
2022/11/08 09:22:52;;;;;;;5.90;1.92;;;15.70;99.90;;;;;;7377118;19;20403;-36
2022/11/08 09:25:19;;;;;;;3.75;1.95;;;15.50;99.90;;;;;;7378756;19;20018;-51
2022/11/08 09:27:45;;;;;;;4.50;2.08;;;15.80;99.90;;;;;;7375463;19;20018;-37
2022/11/08 09:30:12;;;;;;;5.70;1.83;;;16.10;99.90;;;;;;7379309;19;20019;-37
2022/11/08 09:32:38;;;;;;;4.65;1.65;;;16.40;99.90;;;;;;7373484;19;20028;-37
2022/11/08 09:35:05;;;;;;;4.80;1.48;;;16.50;99.90;;;;;;7373819;19;20035;-37
2022/11/08 09:37:31;;;;;;;4.30;1.98;;;16.50;99.90;;;;;;7376617;19;20058;-37
2022/11/08 09:39:57;;;;;;;4.10;1.42;;;16.40;99.90;;;;;;7376048;19;20026;-37
2022/11/08 09:42:49;;;;;;;4.38;1.92;;;16.50;99.90;;;;;;7371162;19;20043;-53
2022/11/08 09:45:29;;;;;;;4.40;1.83;;;15.90;99.90;;;;;;7368097;19;20023;-37
2022/11/08 09:48:05;;;;;;;4.88;1.70;;;15.80;99.90;;;;;;7371701;19;20125;-36
2022/11/08 09:50:42;;;;;;;4.03;1.98;;;15.50;99.90;;;;;;7374461;19;20826;-37
2022/11/08 09:53:14;;;;;;;5.38;2.05;;;15.40;99.90;;;;;;7373899;19;20026;-36
2022/11/08 09:55:46;;;;;;;3.28;1.58;;;15.10;99.90;;;;;;7369654;19;20505;-36
2022/11/08 09:58:27;;;;;;;;;;;15.00;99.90;;;;;;7373149;19;20027;-36
2022/11/08 10:00:53;;;;;;;7.25;1.83;;;15.00;99.90;;;;;;7372351;19;19955;-36
2022/11/08 10:03:23;;;;;;;4.43;1.60;;;15.00;99.90;;;;;;7372647;19;20628;-37
2022/11/08 10:06:15;;;;;;;4.13;2.10;;;14.90;99.90;;;;;;7373917;19;20021;-37
2022/11/08 10:08:59;;;;;;;3.17;1.90;;;14.90;99.90;;;;;;7372295;19;20026;-37
2022/11/08 10:11:32;;;;;;;5.03;2.38;;;14.90;99.90;;;;;;7368860;19;20014;-36
2022/11/08 10:14:26;;;;;;;3.40;1.65;;;14.90;99.90;;;;;;7374685;19;20022;-36
2022/11/08 10:17:20;;;;;;;4.22;1.95;;;14.90;99.90;;;;;;7374605;19;20027;-37
2022/11/08 10:20:12;;;;;;;4.50;1.88;;;14.90;99.90;;;;;;7374510;19;20038;-51
2022/11/08 10:22:41;;;;;;;4.50;2.22;;;14.80;99.90;;;;;;7377110;19;20383;-51
2022/11/08 10:25:19;;;;;;;4.25;1.67;;;14.80;99.90;;;;;;7374866;19;20018;-52
2022/11/08 10:27:45;;;;;;;6.53;1.70;;;14.80;99.90;;;;;;7373011;19;20018;-50
2022/11/08 10:30:19;;;;;;;5.75;1.80;;;14.80;99.90;;;;;;7371384;19;20018;-38
2022/11/08 10:32:56;;;;;;;4.35;1.90;;;14.80;99.90;;;;;;7372945;19;20025;-37
2022/11/08 10:35:45;;;;;;;4.68;1.70;;;14.90;99.90;;;;;;7373223;19;20022;-37
2022/11/08 10:38:19;;;;;;;3.65;1.75;;;14.80;99.90;;;;;;7363055;19;20090;-37
2022/11/08 10:41:02;;;;;;;3.83;1.77;;;14.80;99.90;;;;;;7369178;19;20039;-51
2022/11/08 10:43:40;;;;;;;3.22;1.60;;;14.80;99.90;;;;;;7371654;19;20058;-52
2022/11/08 10:46:34;;;;;;;4.22;1.88;;;14.60;99.90;;;;;;7370939;19;20019;-53
2022/11/08 10:49:21;;;;;;;4.35;1.80;;;14.50;99.90;;;;;;7371639;19;20019;-51
2022/11/08 10:51:52;;;;;;;2.90;1.88;;;14.40;99.90;;;;;;7370366;19;20023;-52
2022/11/08 10:54:38;;;;;;;4.72;1.52;;;14.40;99.90;;;;;;7365346;19;20025;-37
2022/11/08 10:57:05;;;;;;;2.75;1.42;;;14.30;99.90;;;;;;7371145;19;20018;-37
2022/11/08 10:59:32;;;;;;;5.18;1.95;;;14.30;99.90;;;;;;7372338;19;20051;-37
2022/11/08 11:01:58;;;;;;;5.15;2.03;;;14.30;99.90;;;;;;7375744;19;20018;-38
2022/11/08 11:04:28;;;;;;;3.45;1.70;;;14.30;99.90;;;;;;7375536;19;20921;-52
2022/11/08 11:07:01;;;;;;;3.30;1.85;;;14.20;99.90;;;;;;7372757;19;20113;-51
2022/11/08 11:09:27;;;;;;;5.18;1.80;;;14.20;99.90;;;;;;7372121;19;20793;-52
2022/11/08 11:24:04;;;;;;;4.60;1.70;;;14.60;99.90;;;;;;7376492;19;20360;-52
2022/11/08 11:26:34;;;;;;;4.47;1.80;;;14.80;99.90;;;;;;7378633;19;20501;-38
2022/11/08 11:29:03;;;;;;;3.45;1.70;;;15.10;99.90;;;;;;7378776;19;20496;-37
2022/11/08 11:31:38;;;;;;;3.28;1.45;;;15.20;99.90;;;;;;7380218;19;20022;-37
2022/11/08 11:34:16;;;;;;;4.95;2.17;;;15.30;99.90;;;;;;7379686;19;20022;-52
2022/11/08 11:36:49;;;;;;;5.40;2.00;;;15.40;99.90;;;;;;7374581;19;20107;-36
2022/11/08 11:39:39;;;;;;;3.58;1.80;;;15.60;99.90;;;;;;7373010;19;20607;-37
2022/11/08 11:42:39;;;;;;;4.63;2.28;;;15.70;99.90;;;;;;7378247;19;20053;-37
2022/11/08 11:45:12;;;;;;;3.33;1.40;;;15.60;99.90;;;;;;7378898;19;20861;-37
2022/11/08 11:47:42;;;;;;;4.55;1.48;;;15.50;99.90;;;;;;7382519;19;20023;-37
2022/11/08 11:50:31;;;;;;;3.72;1.55;;;15.80;99.90;;;;;;7377691;19;20020;-53
2022/11/08 11:53:00;;;;;;;6.40;1.85;;;15.90;99.90;;;;;;7381517;19;20800;-52
2022/11/08 11:56:13;;;;;;;4.35;1.77;;;15.90;99.90;;;;;;7377109;19;20056;-51
2022/11/08 11:58:43;;;;;;;4.15;1.80;;;16.00;99.90;;;;;;7374046;19;20069;-49
2022/11/08 12:01:17;;;;;;;5.25;1.60;;;16.20;99.90;;;;;;7374642;19;20025;-38
2022/11/08 12:04:11;;;;;;;5.65;1.90;;;16.00;99.90;;;;;;7380278;19;20047;-50
2022/11/08 12:06:37;;;;;;;6.38;1.90;;;15.90;99.90;;;;;;7372378;19;20497;-52
2022/11/08 12:09:28;;;;;;;3.78;2.00;;;15.70;99.90;;;;;;7375559;19;20026;-53
2022/11/08 12:12:13;;;;;;;5.53;2.00;;;15.90;99.90;;;;;;7373971;19;20007;-52
2022/11/08 12:14:55;;;;;;;5.10;1.60;;;16.00;99.90;;;;;;7371740;19;20868;-54
2022/11/08 12:17:46;;;;;;;3.00;1.83;;;16.00;99.90;;;;;;7373220;19;20101;-51
2022/11/08 12:20:37;;;;;;;5.38;2.00;;;16.10;99.90;;;;;;7373010;19;20018;-52
2022/11/08 12:23:06;;;;;;;3.22;1.50;;;15.90;99.90;;;;;;7376034;19;20030;-53
2022/11/08 12:25:41;;;;;;;4.18;2.35;;;15.80;99.90;;;;;;7373082;19;20102;-51
2022/11/08 12:28:45;;;;;;;3.63;1.75;;;15.60;99.90;;;;;;7373703;19;20015;-53
2022/11/08 12:31:14;;;;;;;4.13;1.83;;;15.40;99.90;;;;;;7374222;19;20018;-51
2022/11/08 12:34:05;;;;;;;3.63;1.58;;;15.30;99.90;;;;;;7375204;19;20026;-53
2022/11/08 12:36:36;;;;;;;4.35;1.45;;;15.20;99.90;;;;;;7372791;19;20019;-52
2022/11/08 12:39:21;;;;;;;5.10;1.73;;;15.10;99.90;;;;;;7373237;19;20018;-52
2022/11/08 12:42:22;;;;;;;3.67;1.63;;;15.00;99.90;;;;;;7370041;19;20026;-51
2022/11/08 12:45:18;;;;;;;4.97;1.58;;;14.90;99.90;;;;;;7373042;19;20018;-53
2022/11/08 12:47:52;;;;;;;4.55;1.77;;;14.80;99.90;;;;;;7379968;19;20074;-52
2022/11/08 12:50:38;;;;;;;3.63;1.75;;;14.80;99.90;;;;;;7373613;19;20856;-52
2022/11/08 12:53:23;;;;;;;4.63;1.70;;;14.70;99.90;;;;;;7374159;19;20052;-52
2022/11/08 12:55:53;;;;;;;4.25;1.52;;;14.70;99.90;;;;;;7369997;19;20093;-49
2022/11/08 12:58:31;;;;;;;2.78;1.70;;;14.70;99.90;;;;;;7371629;19;20014;-52
2022/11/08 13:01:01;;;;;;;3.17;1.35;;;14.70;99.90;;;;;;7371400;19;20643;-52
2022/11/08 13:03:53;;;;;;;4.47;2.00;;;14.70;99.90;;;;;;7372591;19;20018;-53
2022/11/08 13:06:42;;;;;;;4.60;1.53;;;14.70;99.90;;;;;;7375738;19;20029;-37
2022/11/08 13:09:30;;;;;;;3.88;1.48;;;14.70;99.90;;;;;;7374459;19;20023;-37
2022/11/08 13:12:20;;;;;;;3.83;1.80;;;14.80;99.90;;;;;;7371549;19;20702;-37
2022/11/08 13:14:47;;;;;;;6.30;1.80;;;14.90;99.90;;;;;;7367390;19;20023;-37
2022/11/08 13:17:25;;;;;;;4.95;1.88;;;15.00;99.90;;;;;;7373888;19;20106;-37
2022/11/08 13:19:53;;;;;;;3.92;1.52;;;15.10;99.90;;;;;;7378163;19;20466;-37
2022/11/08 13:22:28;;;;;;;3.28;1.77;;;15.30;99.90;;;;;;7376102;19;20086;-37
2022/11/08 13:24:56;;;;;;;5.40;2.00;;;15.80;99.90;;;;;;7369480;19;20096;-38
2022/11/08 13:27:43;;;;;;;3.10;1.75;;;16.20;99.90;;;;;;7371465;19;20038;-40
2022/11/08 13:30:10;;;;;;;4.05;1.73;;;16.50;99.90;;;;;;7372117;19;20042;-37
2022/11/08 13:32:49;;;;;;;4.28;1.50;;;16.60;99.90;;;;;;7365206;19;20465;-38
2022/11/08 13:35:34;;;;;;;4.57;2.00;;;16.60;99.90;;;;;;7369143;19;21574;-37